sensor_id;sensor_type;location;lat;lon;timestamp;temperature;humidity
41178;DHT22;26912;54.292;18.574;2022-12-16T00:02:13;10.80;40.70
41178;DHT22;26912;54.292;18.574;2022-12-16T00:04:40;10.70;40.90
41178;DHT22;26912;54.292;18.574;2022-12-16T00:07:06;10.90;41.30
41178;DHT22;26912;54.292;18.574;2022-12-16T00:09:33;11.00;40.80
41178;DHT22;26912;54.292;18.574;2022-12-16T00:11:59;10.80;40.80
41178;DHT22;26912;54.292;18.574;2022-12-16T00:14:28;10.70;41.50
41178;DHT22;26912;54.292;18.574;2022-12-16T00:16:54;11.00;41.30
41178;DHT22;26912;54.292;18.574;2022-12-16T00:19:20;11.00;41.10
41178;DHT22;26912;54.292;18.574;2022-12-16T00:21:47;11.30;41.10
41178;DHT22;26912;54.292;18.574;2022-12-16T00:24:13;11.30;40.40
41178;DHT22;26912;54.292;18.574;2022-12-16T00:26:40;11.00;40.40
41178;DHT22;26912;54.292;18.574;2022-12-16T00:29:07;11.00;40.70
41178;DHT22;26912;54.292;18.574;2022-12-16T00:31:36;11.10;40.90
41178;DHT22;26912;54.292;18.574;2022-12-16T00:34:02;11.50;40.60
41178;DHT22;26912;54.292;18.574;2022-12-16T00:36:29;11.70;40.10
41178;DHT22;26912;54.292;18.574;2022-12-16T00:38:55;11.80;39.90
41178;DHT22;26912;54.292;18.574;2022-12-16T00:41:22;11.90;39.60
41178;DHT22;26912;54.292;18.574;2022-12-16T00:43:48;12.10;39.40
41178;DHT22;26912;54.292;18.574;2022-12-16T00:46:15;12.10;39.30
41178;DHT22;26912;54.292;18.574;2022-12-16T00:48:42;12.10;39.00
41178;DHT22;26912;54.292;18.574;2022-12-16T00:51:09;11.90;38.90
41178;DHT22;26912;54.292;18.574;2022-12-16T00:53:35;11.60;39.30
41178;DHT22;26912;54.292;18.574;2022-12-16T00:56:10;11.60;39.50
41178;DHT22;26912;54.292;18.574;2022-12-16T00:58:40;11.50;39.40
41178;DHT22;26912;54.292;18.574;2022-12-16T01:01:07;10.70;39.90
41178;DHT22;26912;54.292;18.574;2022-12-16T01:03:34;10.50;41.30
41178;DHT22;26912;54.292;18.574;2022-12-16T01:06:01;10.50;41.20
41178;DHT22;26912;54.292;18.574;2022-12-16T01:08:32;10.40;41.20
41178;DHT22;26912;54.292;18.574;2022-12-16T01:10:58;10.10;41.80
41178;DHT22;26912;54.292;18.574;2022-12-16T01:13:25;10.10;42.10
41178;DHT22;26912;54.292;18.574;2022-12-16T01:15:52;9.90;42.40
41178;DHT22;26912;54.292;18.574;2022-12-16T01:18:19;9.70;42.90
41178;DHT22;26912;54.292;18.574;2022-12-16T01:20:45;9.60;43.00
41178;DHT22;26912;54.292;18.574;2022-12-16T01:23:12;9.90;43.60
41178;DHT22;26912;54.292;18.574;2022-12-16T01:25:40;10.50;43.20
41178;DHT22;26912;54.292;18.574;2022-12-16T01:28:08;11.00;42.50
41178;DHT22;26912;54.292;18.574;2022-12-16T01:30:34;11.60;41.80
41178;DHT22;26912;54.292;18.574;2022-12-16T01:33:01;11.80;40.90
41178;DHT22;26912;54.292;18.574;2022-12-16T01:35:27;12.10;40.30
41178;DHT22;26912;54.292;18.574;2022-12-16T01:37:54;12.40;39.70
41178;DHT22;26912;54.292;18.574;2022-12-16T01:40:23;11.90;39.10
41178;DHT22;26912;54.292;18.574;2022-12-16T01:42:50;11.70;39.60
41178;DHT22;26912;54.292;18.574;2022-12-16T01:45:32;10.80;40.40
41178;DHT22;26912;54.292;18.574;2022-12-16T01:48:17;10.50;41.70
41178;DHT22;26912;54.292;18.574;2022-12-16T01:50:47;10.90;41.50
41178;DHT22;26912;54.292;18.574;2022-12-16T01:53:14;11.00;41.60
41178;DHT22;26912;54.292;18.574;2022-12-16T01:55:45;11.20;41.00
41178;DHT22;26912;54.292;18.574;2022-12-16T01:58:20;11.20;41.00
41178;DHT22;26912;54.292;18.574;2022-12-16T02:00:49;10.20;41.80
41178;DHT22;26912;54.292;18.574;2022-12-16T02:03:16;9.90;42.80
41178;DHT22;26912;54.292;18.574;2022-12-16T02:05:43;9.60;43.30
41178;DHT22;26912;54.292;18.574;2022-12-16T02:08:16;9.20;44.20
41178;DHT22;26912;54.292;18.574;2022-12-16T02:13:34;9.90;43.90
41178;DHT22;26912;54.292;18.574;2022-12-16T02:19:01;10.60;43.10
41178;DHT22;26912;54.292;18.574;2022-12-16T02:39:12;12.70;38.70
41178;DHT22;26912;54.292;18.574;2022-12-16T02:44:13;11.80;39.30
41178;DHT22;26912;54.292;18.574;2022-12-16T02:46:46;11.70;39.80
41178;DHT22;26912;54.292;18.574;2022-12-16T02:51:44;12.50;39.20
41178;DHT22;26912;54.292;18.574;2022-12-16T02:54:11;12.20;38.40
41178;DHT22;26912;54.292;18.574;2022-12-16T02:59:23;12.30;39.50
41178;DHT22;26912;54.292;18.574;2022-12-16T03:01:57;12.40;38.90
41178;DHT22;26912;54.292;18.574;2022-12-16T03:04:44;12.60;38.50
41178;DHT22;26912;54.292;18.574;2022-12-16T03:07:17;12.70;38.40
41178;DHT22;26912;54.292;18.574;2022-12-16T03:09:45;12.70;38.00
41178;DHT22;26912;54.292;18.574;2022-12-16T03:12:15;12.70;37.90
41178;DHT22;26912;54.292;18.574;2022-12-16T03:14:45;12.70;37.90
41178;DHT22;26912;54.292;18.574;2022-12-16T03:17:15;13.00;37.90
41178;DHT22;26912;54.292;18.574;2022-12-16T03:19:51;13.40;37.50
41178;DHT22;26912;54.292;18.574;2022-12-16T03:22:25;13.50;37.00
41178;DHT22;26912;54.292;18.574;2022-12-16T03:24:54;13.60;37.00
41178;DHT22;26912;54.292;18.574;2022-12-16T03:27:29;13.70;36.90
41178;DHT22;26912;54.292;18.574;2022-12-16T03:30:06;13.90;36.40
41178;DHT22;26912;54.292;18.574;2022-12-16T03:32:40;13.80;36.30
41178;DHT22;26912;54.292;18.574;2022-12-16T03:35:34;13.90;36.40
41178;DHT22;26912;54.292;18.574;2022-12-16T03:38:05;13.90;36.00
41178;DHT22;26912;54.292;18.574;2022-12-16T03:40:33;13.80;36.30
41178;DHT22;26912;54.292;18.574;2022-12-16T03:43:01;13.80;36.00
41178;DHT22;26912;54.292;18.574;2022-12-16T03:45:34;13.70;36.10
41178;DHT22;26912;54.292;18.574;2022-12-16T03:48:02;13.80;36.10
41178;DHT22;26912;54.292;18.574;2022-12-16T03:50:32;13.80;36.00
41178;DHT22;26912;54.292;18.574;2022-12-16T03:53:00;13.80;36.00
41178;DHT22;26912;54.292;18.574;2022-12-16T03:55:27;13.70;36.00
41178;DHT22;26912;54.292;18.574;2022-12-16T03:57:53;13.50;35.90
41178;DHT22;26912;54.292;18.574;2022-12-16T04:00:20;13.30;35.80
41178;DHT22;26912;54.292;18.574;2022-12-16T04:02:47;13.30;36.10
41178;DHT22;26912;54.292;18.574;2022-12-16T04:05:14;13.30;36.20
41178;DHT22;26912;54.292;18.574;2022-12-16T04:07:40;13.40;36.20
41178;DHT22;26912;54.292;18.574;2022-12-16T04:10:08;13.60;36.10
41178;DHT22;26912;54.292;18.574;2022-12-16T04:12:35;13.70;36.00
41178;DHT22;26912;54.292;18.574;2022-12-16T04:15:19;13.50;36.00
41178;DHT22;26912;54.292;18.574;2022-12-16T04:18:07;13.50;35.90
41178;DHT22;26912;54.292;18.574;2022-12-16T04:20:57;13.70;36.00
41178;DHT22;26912;54.292;18.574;2022-12-16T04:23:54;13.90;35.70
41178;DHT22;26912;54.292;18.574;2022-12-16T04:26:39;13.70;36.00
41178;DHT22;26912;54.292;18.574;2022-12-16T04:29:24;13.50;35.90
41178;DHT22;26912;54.292;18.574;2022-12-16T04:31:51;13.50;35.90
41178;DHT22;26912;54.292;18.574;2022-12-16T04:34:19;13.60;35.90
41178;DHT22;26912;54.292;18.574;2022-12-16T04:36:53;13.80;36.00
41178;DHT22;26912;54.292;18.574;2022-12-16T04:39:39;13.80;35.60
41178;DHT22;26912;54.292;18.574;2022-12-16T04:42:23;13.60;35.50
41178;DHT22;26912;54.292;18.574;2022-12-16T04:45:09;13.20;36.10
41178;DHT22;26912;54.292;18.574;2022-12-16T04:47:54;12.80;36.40
41178;DHT22;26912;54.292;18.574;2022-12-16T04:50:39;12.60;36.90
41178;DHT22;26912;54.292;18.574;2022-12-16T04:53:25;12.80;37.40
41178;DHT22;26912;54.292;18.574;2022-12-16T04:56:10;13.00;37.20
41178;DHT22;26912;54.292;18.574;2022-12-16T04:58:56;12.90;37.20
41178;DHT22;26912;54.292;18.574;2022-12-16T05:01:43;13.10;37.10
41178;DHT22;26912;54.292;18.574;2022-12-16T05:04:28;13.00;36.70
41178;DHT22;26912;54.292;18.574;2022-12-16T05:07:13;12.90;37.00
41178;DHT22;26912;54.292;18.574;2022-12-16T05:09:58;12.80;37.40
41178;DHT22;26912;54.292;18.574;2022-12-16T05:12:43;13.00;37.40
41178;DHT22;26912;54.292;18.574;2022-12-16T05:15:28;13.20;36.90
41178;DHT22;26912;54.292;18.574;2022-12-16T05:18:15;13.40;36.70
41178;DHT22;26912;54.292;18.574;2022-12-16T05:21:01;13.40;36.70
41178;DHT22;26912;54.292;18.574;2022-12-16T05:23:46;13.60;36.50
41178;DHT22;26912;54.292;18.574;2022-12-16T05:26:48;13.50;36.20
41178;DHT22;26912;54.292;18.574;2022-12-16T05:29:34;13.30;36.30
41178;DHT22;26912;54.292;18.574;2022-12-16T05:32:18;12.80;36.70
41178;DHT22;26912;54.292;18.574;2022-12-16T05:35:04;12.90;37.40
41178;DHT22;26912;54.292;18.574;2022-12-16T05:37:49;13.10;37.30
41178;DHT22;26912;54.292;18.574;2022-12-16T05:40:34;13.30;37.30
41178;DHT22;26912;54.292;18.574;2022-12-16T05:43:18;13.40;36.90
41178;DHT22;26912;54.292;18.574;2022-12-16T05:46:03;13.50;36.50
41178;DHT22;26912;54.292;18.574;2022-12-16T05:48:48;13.40;36.40
41178;DHT22;26912;54.292;18.574;2022-12-16T05:51:33;13.30;36.50
41178;DHT22;26912;54.292;18.574;2022-12-16T05:54:18;13.20;36.80
41178;DHT22;26912;54.292;18.574;2022-12-16T05:57:23;13.30;37.10
41178;DHT22;26912;54.292;18.574;2022-12-16T06:00:08;13.70;36.80
41178;DHT22;26912;54.292;18.574;2022-12-16T06:02:53;13.80;36.80
41178;DHT22;26912;54.292;18.574;2022-12-16T06:05:38;14.00;36.50
41178;DHT22;26912;54.292;18.574;2022-12-16T06:08:24;14.20;36.20
41178;DHT22;26912;54.292;18.574;2022-12-16T06:11:08;14.10;35.90
41178;DHT22;26912;54.292;18.574;2022-12-16T06:13:53;13.70;36.00
41178;DHT22;26912;54.292;18.574;2022-12-16T06:16:38;13.30;36.40
41178;DHT22;26912;54.292;18.574;2022-12-16T06:19:23;13.20;36.60
41178;DHT22;26912;54.292;18.574;2022-12-16T06:22:08;13.20;36.90
41178;DHT22;26912;54.292;18.574;2022-12-16T06:24:53;13.20;37.10
41178;DHT22;26912;54.292;18.574;2022-12-16T06:27:38;13.30;36.90
41178;DHT22;26912;54.292;18.574;2022-12-16T06:30:23;13.30;36.90
41178;DHT22;26912;54.292;18.574;2022-12-16T06:33:08;13.50;36.60
41178;DHT22;26912;54.292;18.574;2022-12-16T06:35:53;13.50;36.40
41178;DHT22;26912;54.292;18.574;2022-12-16T06:38:37;13.30;36.60
41178;DHT22;26912;54.292;18.574;2022-12-16T06:41:22;13.20;37.00
41178;DHT22;26912;54.292;18.574;2022-12-16T06:44:07;13.20;37.70
41178;DHT22;26912;54.292;18.574;2022-12-16T06:46:52;13.40;37.20
41178;DHT22;26912;54.292;18.574;2022-12-16T06:49:44;13.50;36.80
41178;DHT22;26912;54.292;18.574;2022-12-16T06:52:29;13.20;36.80
41178;DHT22;26912;54.292;18.574;2022-12-16T06:55:14;13.20;36.90
41178;DHT22;26912;54.292;18.574;2022-12-16T06:57:59;13.30;36.80
41178;DHT22;26912;54.292;18.574;2022-12-16T07:00:45;13.50;36.70
41178;DHT22;26912;54.292;18.574;2022-12-16T07:03:31;13.60;36.60
41178;DHT22;26912;54.292;18.574;2022-12-16T07:06:18;13.60;36.80
41178;DHT22;26912;54.292;18.574;2022-12-16T07:09:03;13.80;36.90
41178;DHT22;26912;54.292;18.574;2022-12-16T07:11:48;13.70;36.60
41178;DHT22;26912;54.292;18.574;2022-12-16T07:14:33;13.80;36.60
41178;DHT22;26912;54.292;18.574;2022-12-16T07:17:18;13.70;36.70
41178;DHT22;26912;54.292;18.574;2022-12-16T07:20:04;14.00;36.90
41178;DHT22;26912;54.292;18.574;2022-12-16T07:22:48;14.40;36.30
41178;DHT22;26912;54.292;18.574;2022-12-16T07:25:33;14.50;35.70
41178;DHT22;26912;54.292;18.574;2022-12-16T07:28:20;14.30;35.90
41178;DHT22;26912;54.292;18.574;2022-12-16T07:31:05;14.00;35.70
41178;DHT22;26912;54.292;18.574;2022-12-16T07:33:50;14.10;36.00
41178;DHT22;26912;54.292;18.574;2022-12-16T07:36:35;14.40;35.90
41178;DHT22;26912;54.292;18.574;2022-12-16T07:39:20;14.30;35.60
41178;DHT22;26912;54.292;18.574;2022-12-16T07:42:05;14.00;36.10
41178;DHT22;26912;54.292;18.574;2022-12-16T07:44:50;13.90;36.20
41178;DHT22;26912;54.292;18.574;2022-12-16T07:47:35;13.80;36.50
41178;DHT22;26912;54.292;18.574;2022-12-16T07:50:20;13.80;36.30
41178;DHT22;26912;54.292;18.574;2022-12-16T07:53:05;13.30;36.60
41178;DHT22;26912;54.292;18.574;2022-12-16T07:55:50;13.10;37.00
41178;DHT22;26912;54.292;18.574;2022-12-16T07:58:35;13.20;37.30
41178;DHT22;26912;54.292;18.574;2022-12-16T08:01:19;13.30;37.10
41178;DHT22;26912;54.292;18.574;2022-12-16T08:04:05;13.50;37.10
41178;DHT22;26912;54.292;18.574;2022-12-16T08:06:51;13.50;36.80
41178;DHT22;26912;54.292;18.574;2022-12-16T08:09:36;13.50;37.30
41178;DHT22;26912;54.292;18.574;2022-12-16T08:12:21;13.40;36.80
41178;DHT22;26912;54.292;18.574;2022-12-16T08:15:07;13.80;36.80
41178;DHT22;26912;54.292;18.574;2022-12-16T08:17:52;14.10;36.40
41178;DHT22;26912;54.292;18.574;2022-12-16T08:20:37;13.90;36.20
41178;DHT22;26912;54.292;18.574;2022-12-16T08:23:23;13.70;36.50
41178;DHT22;26912;54.292;18.574;2022-12-16T08:26:11;13.60;36.30
41178;DHT22;26912;54.292;18.574;2022-12-16T08:28:56;13.20;36.50
41178;DHT22;26912;54.292;18.574;2022-12-16T08:31:42;12.90;36.90
41178;DHT22;26912;54.292;18.574;2022-12-16T08:34:27;13.10;37.50
41178;DHT22;26912;54.292;18.574;2022-12-16T08:37:12;13.30;37.30
41178;DHT22;26912;54.292;18.574;2022-12-16T08:39:57;13.50;37.10
41178;DHT22;26912;54.292;18.574;2022-12-16T08:42:42;13.50;36.70
41178;DHT22;26912;54.292;18.574;2022-12-16T08:45:27;13.30;36.80
41178;DHT22;26912;54.292;18.574;2022-12-16T08:48:12;13.50;37.00
41178;DHT22;26912;54.292;18.574;2022-12-16T08:51:02;13.60;36.60
41178;DHT22;26912;54.292;18.574;2022-12-16T08:53:48;13.60;36.70
41178;DHT22;26912;54.292;18.574;2022-12-16T08:56:32;13.40;37.20
41178;DHT22;26912;54.292;18.574;2022-12-16T08:59:18;13.50;37.00
41178;DHT22;26912;54.292;18.574;2022-12-16T09:02:03;13.60;36.90
41178;DHT22;26912;54.292;18.574;2022-12-16T09:04:48;13.60;36.70
41178;DHT22;26912;54.292;18.574;2022-12-16T09:07:33;13.70;36.60
41178;DHT22;26912;54.292;18.574;2022-12-16T09:10:20;13.50;36.70
41178;DHT22;26912;54.292;18.574;2022-12-16T09:13:11;13.60;36.90
41178;DHT22;26912;54.292;18.574;2022-12-16T09:15:57;13.30;36.50
41178;DHT22;26912;54.292;18.574;2022-12-16T09:18:41;13.00;37.10
41178;DHT22;26912;54.292;18.574;2022-12-16T09:21:27;13.30;37.40
41178;DHT22;26912;54.292;18.574;2022-12-16T09:24:12;13.60;37.30
41178;DHT22;26912;54.292;18.574;2022-12-16T09:26:59;13.70;37.00
41178;DHT22;26912;54.292;18.574;2022-12-16T09:29:44;13.50;36.80
41178;DHT22;26912;54.292;18.574;2022-12-16T09:32:29;13.70;36.90
41178;DHT22;26912;54.292;18.574;2022-12-16T09:35:14;13.90;37.00
41178;DHT22;26912;54.292;18.574;2022-12-16T09:37:59;13.90;36.70
41178;DHT22;26912;54.292;18.574;2022-12-16T09:40:45;14.10;37.40
41178;DHT22;26912;54.292;18.574;2022-12-16T09:46:49;14.50;36.10
41178;DHT22;26912;54.292;18.574;2022-12-16T09:49:51;14.10;35.90
41178;DHT22;26912;54.292;18.574;2022-12-16T09:52:46;13.90;36.00
41178;DHT22;26912;54.292;18.574;2022-12-16T09:55:37;13.70;36.40
41178;DHT22;26912;54.292;18.574;2022-12-16T09:58:25;13.80;36.50
41178;DHT22;26912;54.292;18.574;2022-12-16T10:01:13;13.60;36.70
41178;DHT22;26912;54.292;18.574;2022-12-16T10:03:58;13.60;36.70
41178;DHT22;26912;54.292;18.574;2022-12-16T10:06:50;13.40;37.00
41178;DHT22;26912;54.292;18.574;2022-12-16T10:13:02;12.90;37.80
41178;DHT22;26912;54.292;18.574;2022-12-16T10:19:00;14.10;37.50
41178;DHT22;26912;54.292;18.574;2022-12-16T10:27:56;15.00;35.90
41178;DHT22;26912;54.292;18.574;2022-12-16T10:30:43;14.70;35.40
41178;DHT22;26912;54.292;18.574;2022-12-16T10:33:48;14.00;35.80
41178;DHT22;26912;54.292;18.574;2022-12-16T10:36:35;14.10;36.50
41178;DHT22;26912;54.292;18.574;2022-12-16T10:39:26;14.40;36.50
41178;DHT22;26912;54.292;18.574;2022-12-16T10:42:27;14.70;36.10
41178;DHT22;26912;54.292;18.574;2022-12-16T10:45:44;15.20;35.60
41178;DHT22;26912;54.292;18.574;2022-12-16T10:48:29;15.50;35.00
41178;DHT22;26912;54.292;18.574;2022-12-16T10:51:17;15.20;34.80
41178;DHT22;26912;54.292;18.574;2022-12-16T10:54:27;15.10;35.20
41178;DHT22;26912;54.292;18.574;2022-12-16T11:00:20;15.10;35.30
41178;DHT22;26912;54.292;18.574;2022-12-16T11:03:20;15.30;35.10
41178;DHT22;26912;54.292;18.574;2022-12-16T11:06:07;15.60;34.60
41178;DHT22;26912;54.292;18.574;2022-12-16T11:08:52;15.30;34.50
41178;DHT22;26912;54.292;18.574;2022-12-16T11:11:37;14.80;35.00
41178;DHT22;26912;54.292;18.574;2022-12-16T11:17:23;14.20;36.00
41178;DHT22;26912;54.292;18.574;2022-12-16T11:20:17;14.10;36.00
41178;DHT22;26912;54.292;18.574;2022-12-16T11:23:19;13.90;36.40
41178;DHT22;26912;54.292;18.574;2022-12-16T11:26:16;14.30;36.30
41178;DHT22;26912;54.292;18.574;2022-12-16T11:29:05;14.30;36.00
41178;DHT22;26912;54.292;18.574;2022-12-16T11:32:06;14.30;36.20
41178;DHT22;26912;54.292;18.574;2022-12-16T11:34:57;14.60;36.20
41178;DHT22;26912;54.292;18.574;2022-12-16T11:37:43;15.10;35.60
41178;DHT22;26912;54.292;18.574;2022-12-16T11:40:30;15.30;35.20
41178;DHT22;26912;54.292;18.574;2022-12-16T11:43:17;15.20;35.00
41178;DHT22;26912;54.292;18.574;2022-12-16T11:46:10;15.10;35.10
41178;DHT22;26912;54.292;18.574;2022-12-16T11:49:00;15.10;34.90
41178;DHT22;26912;54.292;18.574;2022-12-16T11:51:53;14.90;35.20
41178;DHT22;26912;54.292;18.574;2022-12-16T11:54:55;14.70;35.20
41178;DHT22;26912;54.292;18.574;2022-12-16T11:58:10;14.40;35.60
41178;DHT22;26912;54.292;18.574;2022-12-16T12:00:58;14.00;35.90
41178;DHT22;26912;54.292;18.574;2022-12-16T12:03:48;14.10;36.30
41178;DHT22;26912;54.292;18.574;2022-12-16T12:06:54;14.00;36.10
41178;DHT22;26912;54.292;18.574;2022-12-16T12:09:53;13.90;36.40
41178;DHT22;26912;54.292;18.574;2022-12-16T12:13:06;13.80;36.80
41178;DHT22;26912;54.292;18.574;2022-12-16T12:16:07;13.60;36.80
41178;DHT22;26912;54.292;18.574;2022-12-16T12:19:12;13.50;37.00
41178;DHT22;26912;54.292;18.574;2022-12-16T12:22:26;13.50;37.00
41178;DHT22;26912;54.292;18.574;2022-12-16T12:25:33;13.30;37.30
41178;DHT22;26912;54.292;18.574;2022-12-16T12:28:49;13.30;37.50
41178;DHT22;26912;54.292;18.574;2022-12-16T12:31:52;13.80;37.20
41178;DHT22;26912;54.292;18.574;2022-12-16T12:34:48;14.00;36.80
41178;DHT22;26912;54.292;18.574;2022-12-16T12:37:47;14.20;36.50
41178;DHT22;26912;54.292;18.574;2022-12-16T12:43:33;14.50;36.00
41178;DHT22;26912;54.292;18.574;2022-12-16T12:46:38;14.40;35.90
41178;DHT22;26912;54.292;18.574;2022-12-16T12:49:40;13.80;36.20
41178;DHT22;26912;54.292;18.574;2022-12-16T12:55:43;13.10;37.80
41178;DHT22;26912;54.292;18.574;2022-12-16T12:58:32;13.30;37.70
41178;DHT22;26912;54.292;18.574;2022-12-16T13:01:20;13.80;37.60
41178;DHT22;26912;54.292;18.574;2022-12-16T13:04:11;14.10;36.80
41178;DHT22;26912;54.292;18.574;2022-12-16T13:06:59;13.80;36.90
41178;DHT22;26912;54.292;18.574;2022-12-16T13:09:44;13.90;37.00
41178;DHT22;26912;54.292;18.574;2022-12-16T13:12:31;14.00;37.10
41178;DHT22;26912;54.292;18.574;2022-12-16T13:15:39;14.20;37.00
41178;DHT22;26912;54.292;18.574;2022-12-16T13:18:47;14.70;36.40
41178;DHT22;26912;54.292;18.574;2022-12-16T13:21:41;15.10;36.00
41178;DHT22;26912;54.292;18.574;2022-12-16T13:24:44;15.10;35.70
41178;DHT22;26912;54.292;18.574;2022-12-16T13:27:45;15.10;35.40
41178;DHT22;26912;54.292;18.574;2022-12-16T13:30:32;15.10;35.40
41178;DHT22;26912;54.292;18.574;2022-12-16T13:33:25;15.20;35.40
41178;DHT22;26912;54.292;18.574;2022-12-16T13:36:14;15.30;35.10
41178;DHT22;26912;54.292;18.574;2022-12-16T13:39:22;15.30;35.00
41178;DHT22;26912;54.292;18.574;2022-12-16T13:42:31;15.50;34.80
41178;DHT22;26912;54.292;18.574;2022-12-16T13:48:38;15.60;34.60
41178;DHT22;26912;54.292;18.574;2022-12-16T13:54:40;15.50;34.70
41178;DHT22;26912;54.292;18.574;2022-12-16T13:57:29;15.40;34.50
41178;DHT22;26912;54.292;18.574;2022-12-16T14:00:23;15.10;34.80
41178;DHT22;26912;54.292;18.574;2022-12-16T14:03:40;15.00;35.10
41178;DHT22;26912;54.292;18.574;2022-12-16T14:06:27;14.80;35.50
41178;DHT22;26912;54.292;18.574;2022-12-16T14:09:35;15.10;35.40
41178;DHT22;26912;54.292;18.574;2022-12-16T14:21:33;15.00;35.60
41178;DHT22;26912;54.292;18.574;2022-12-16T14:24:26;15.00;35.80
41178;DHT22;26912;54.292;18.574;2022-12-16T14:27:21;15.10;35.90
41178;DHT22;26912;54.292;18.574;2022-12-16T14:30:23;15.30;35.50
41178;DHT22;26912;54.292;18.574;2022-12-16T14:33:35;15.40;35.60
41178;DHT22;26912;54.292;18.574;2022-12-16T14:36:37;15.50;35.50
41178;DHT22;26912;54.292;18.574;2022-12-16T14:39:30;15.60;35.20
41178;DHT22;26912;54.292;18.574;2022-12-16T14:42:28;15.50;35.40
41178;DHT22;26912;54.292;18.574;2022-12-16T14:45:27;15.30;35.50
41178;DHT22;26912;54.292;18.574;2022-12-16T14:48:36;15.20;35.60
41178;DHT22;26912;54.292;18.574;2022-12-16T14:51:46;15.20;35.70
41178;DHT22;26912;54.292;18.574;2022-12-16T14:54:36;15.30;35.80
41178;DHT22;26912;54.292;18.574;2022-12-16T14:57:27;15.30;35.90
41178;DHT22;26912;54.292;18.574;2022-12-16T15:00:24;15.60;36.00
41178;DHT22;26912;54.292;18.574;2022-12-16T15:03:31;15.60;35.60
41178;DHT22;26912;54.292;18.574;2022-12-16T15:06:43;15.50;35.90
41178;DHT22;26912;54.292;18.574;2022-12-16T15:09:33;15.60;36.00
41178;DHT22;26912;54.292;18.574;2022-12-16T15:12:23;15.60;35.90
41178;DHT22;26912;54.292;18.574;2022-12-16T15:15:25;15.60;36.00
41178;DHT22;26912;54.292;18.574;2022-12-16T15:18:31;15.80;35.90
41178;DHT22;26912;54.292;18.574;2022-12-16T15:21:18;15.80;35.80
41178;DHT22;26912;54.292;18.574;2022-12-16T15:24:08;15.90;35.80
41178;DHT22;26912;54.292;18.574;2022-12-16T15:27:14;16.00;35.90
41178;DHT22;26912;54.292;18.574;2022-12-16T15:33:20;16.20;35.60
41178;DHT22;26912;54.292;18.574;2022-12-16T15:36:31;16.20;35.60
41178;DHT22;26912;54.292;18.574;2022-12-16T15:39:31;16.20;35.90
41178;DHT22;26912;54.292;18.574;2022-12-16T15:42:24;16.00;36.20
41178;DHT22;26912;54.292;18.574;2022-12-16T15:45:28;16.20;36.20
41178;DHT22;26912;54.292;18.574;2022-12-16T15:48:28;16.20;36.20
41178;DHT22;26912;54.292;18.574;2022-12-16T15:51:40;16.00;36.30
41178;DHT22;26912;54.292;18.574;2022-12-16T15:54:28;15.90;36.40
41178;DHT22;26912;54.292;18.574;2022-12-16T15:58:08;16.00;36.30
41178;DHT22;26912;54.292;18.574;2022-12-16T16:00:56;16.00;36.20
41178;DHT22;26912;54.292;18.574;2022-12-16T16:03:48;15.90;36.50
41178;DHT22;26912;54.292;18.574;2022-12-16T16:06:34;16.00;36.40
41178;DHT22;26912;54.292;18.574;2022-12-16T16:09:29;15.90;36.40
41178;DHT22;26912;54.292;18.574;2022-12-16T16:12:18;15.80;36.20
41178;DHT22;26912;54.292;18.574;2022-12-16T16:15:05;15.80;36.40
41178;DHT22;26912;54.292;18.574;2022-12-16T16:17:56;16.00;36.50
41178;DHT22;26912;54.292;18.574;2022-12-16T16:20:42;16.00;36.40
41178;DHT22;26912;54.292;18.574;2022-12-16T16:23:28;16.10;36.20
41178;DHT22;26912;54.292;18.574;2022-12-16T16:26:15;16.10;36.10
41178;DHT22;26912;54.292;18.574;2022-12-16T16:29:03;16.10;36.00
41178;DHT22;26912;54.292;18.574;2022-12-16T16:31:51;16.10;36.20
41178;DHT22;26912;54.292;18.574;2022-12-16T16:34:36;16.20;36.40
41178;DHT22;26912;54.292;18.574;2022-12-16T16:37:22;16.20;36.30
41178;DHT22;26912;54.292;18.574;2022-12-16T16:40:32;16.40;36.20
41178;DHT22;26912;54.292;18.574;2022-12-16T16:43:20;16.40;36.20
41178;DHT22;26912;54.292;18.574;2022-12-16T16:46:34;16.60;36.20
41178;DHT22;26912;54.292;18.574;2022-12-16T16:49:39;16.40;36.40
41178;DHT22;26912;54.292;18.574;2022-12-16T16:52:26;16.10;36.40
41178;DHT22;26912;54.292;18.574;2022-12-16T16:55:17;15.70;36.90
41178;DHT22;26912;54.292;18.574;2022-12-16T16:58:11;15.40;37.50
41178;DHT22;26912;54.292;18.574;2022-12-16T17:00:59;15.40;37.60
41178;DHT22;26912;54.292;18.574;2022-12-16T17:03:45;15.10;37.90
41178;DHT22;26912;54.292;18.574;2022-12-16T17:06:31;15.00;38.30
41178;DHT22;26912;54.292;18.574;2022-12-16T17:09:17;15.00;38.30
41178;DHT22;26912;54.292;18.574;2022-12-16T17:12:20;15.00;38.30
41178;DHT22;26912;54.292;18.574;2022-12-16T17:15:14;15.10;38.40
41178;DHT22;26912;54.292;18.574;2022-12-16T17:18:01;15.30;38.20
41178;DHT22;26912;54.292;18.574;2022-12-16T17:20:47;15.40;38.00
41178;DHT22;26912;54.292;18.574;2022-12-16T17:23:32;15.50;38.00
41178;DHT22;26912;54.292;18.574;2022-12-16T17:26:17;15.40;38.00
41178;DHT22;26912;54.292;18.574;2022-12-16T17:29:05;15.50;37.80
41178;DHT22;26912;54.292;18.574;2022-12-16T17:31:51;15.80;37.70
41178;DHT22;26912;54.292;18.574;2022-12-16T17:34:37;16.00;37.40
41178;DHT22;26912;54.292;18.574;2022-12-16T17:37:23;15.90;37.10
41178;DHT22;26912;54.292;18.574;2022-12-16T17:40:08;15.90;37.00
41178;DHT22;26912;54.292;18.574;2022-12-16T17:42:54;15.90;37.20
41178;DHT22;26912;54.292;18.574;2022-12-16T17:45:40;16.00;37.30
41178;DHT22;26912;54.292;18.574;2022-12-16T17:48:38;16.00;37.30
41178;DHT22;26912;54.292;18.574;2022-12-16T17:51:24;16.00;37.30
41178;DHT22;26912;54.292;18.574;2022-12-16T17:54:09;16.00;37.10
41178;DHT22;26912;54.292;18.574;2022-12-16T17:56:55;15.80;37.30
41178;DHT22;26912;54.292;18.574;2022-12-16T17:59:40;15.80;37.60
41178;DHT22;26912;54.292;18.574;2022-12-16T18:02:26;15.70;37.80
41178;DHT22;26912;54.292;18.574;2022-12-16T18:05:14;15.90;37.80
41178;DHT22;26912;54.292;18.574;2022-12-16T18:08:07;15.90;37.80
41178;DHT22;26912;54.292;18.574;2022-12-16T18:10:54;15.90;37.70
41178;DHT22;26912;54.292;18.574;2022-12-16T18:13:40;16.00;37.70
41178;DHT22;26912;54.292;18.574;2022-12-16T18:16:26;15.90;37.80
41178;DHT22;26912;54.292;18.574;2022-12-16T18:19:13;15.80;38.00
41178;DHT22;26912;54.292;18.574;2022-12-16T18:21:59;15.80;39.00
41178;DHT22;26912;54.292;18.574;2022-12-16T18:24:47;15.90;38.50
41178;DHT22;26912;54.292;18.574;2022-12-16T18:27:32;16.00;38.30
41178;DHT22;26912;54.292;18.574;2022-12-16T18:30:18;15.80;38.20